Time;durP1;ratioP1;P1;durP2;ratioP2;P2;SDS_P1;SDS_P2;PMS_P1;PMS_P2;Temp;Humidity;BMP_temperature;BMP_pressure;BME280_temperature;BME280_humidity;BME280_pressure;Samples;Min_cycle;Max_cycle;Signal;HPM_P1;HPM_P2
2022/08/04 08:12:14;;;;;;;2.00;1.90;;;24.90;47.00;;;;;;4978065;28;20485;-63
2022/08/04 08:14:41;;;;;;;2.00;1.90;;;24.80;47.10;;;;;;4996228;28;20480;-64
2022/08/04 08:17:07;;;;;;;1.90;1.80;;;24.80;47.20;;;;;;4992465;28;20430;-64
2022/08/04 08:19:33;;;;;;;2.30;2.10;;;24.80;47.30;;;;;;5001596;28;20573;-63
2022/08/04 08:21:59;;;;;;;1.90;1.80;;;24.90;47.40;;;;;;4999051;28;20216;-63
2022/08/04 08:24:26;;;;;;;1.90;1.80;;;24.90;47.50;;;;;;4997406;28;22278;-67
2022/08/04 08:26:52;;;;;;;2.50;2.30;;;24.90;47.40;;;;;;4994745;28;20184;-63
2022/08/04 08:29:18;;;;;;;1.80;1.70;;;24.90;47.60;;;;;;5000646;28;20445;-64
2022/08/04 08:31:44;;;;;;;2.30;2.20;;;24.90;47.60;;;;;;4995014;28;20183;-63
2022/08/04 08:34:12;;;;;;;3.20;2.10;;;24.90;47.60;;;;;;4992722;28;20920;-65
2022/08/04 08:36:46;;;;;;;6.07;2.43;;;24.90;47.70;;;;;;5001296;28;20429;-63
2022/08/04 08:39:17;;;;;;;2.27;2.17;;;24.90;47.70;;;;;;5001369;28;20499;-64
2022/08/04 08:42:01;;;;;;;1.90;1.80;;;24.90;47.70;;;;;;4997340;28;20439;-65
2022/08/04 08:44:58;;;;;;;2.53;1.97;;;24.90;47.80;;;;;;4999782;28;20433;-64
2022/08/04 08:47:46;;;;;;;2.20;2.10;;;24.90;47.80;;;;;;4996116;28;20456;-66
2022/08/04 08:50:49;;;;;;;1.70;1.60;;;24.90;47.90;;;;;;4988819;28;20437;-64
2022/08/04 08:53:17;;;;;;;1.80;1.70;;;24.90;47.70;;;;;;4991306;28;20433;-64
2022/08/04 08:56:05;;;;;;;2.30;2.10;;;24.90;48.30;;;;;;4992763;28;20793;-65
2022/08/04 08:58:49;;;;;;;2.07;1.97;;;24.90;47.70;;;;;;4994981;28;20493;-65
2022/08/04 09:01:43;;;;;;;1.80;1.70;;;24.90;47.70;;;;;;4997324;28;20430;-67
2022/08/04 09:04:37;;;;;;;1.87;1.77;;;24.90;47.70;;;;;;4995809;28;21259;-64
2022/08/04 09:07:36;;;;;;;2.30;2.17;;;24.90;47.70;;;;;;4998199;28;20468;-65
2022/08/04 09:10:16;;;;;;;1.83;1.73;;;24.90;47.70;;;;;;4998359;28;20947;-65
2022/08/04 09:13:03;;;;;;;1.90;1.80;;;24.90;47.80;;;;;;5004131;28;20555;-64
2022/08/04 09:15:48;;;;;;;2.37;2.27;;;24.90;47.80;;;;;;4997334;28;20455;-64
2022/08/04 09:18:35;;;;;;;2.33;2.13;;;24.90;47.90;;;;;;4992630;28;20504;-64
2022/08/04 09:21:16;;;;;;;2.13;2.03;;;24.90;47.90;;;;;;4998412;28;20463;-64
2022/08/04 09:23:59;;;;;;;1.80;1.70;;;24.90;47.90;;;;;;4996454;28;20452;-64
2022/08/04 09:26:58;;;;;;;1.70;1.60;;;24.90;47.90;;;;;;4994501;28;20935;-64
2022/08/04 09:29:42;;;;;;;2.40;2.20;;;24.90;47.80;;;;;;4989351;28;20495;-65
2022/08/04 09:32:16;;;;;;;3.10;2.10;;;24.90;47.70;;;;;;4990025;28;20441;-64
2022/08/04 09:35:19;;;;;;;1.90;1.80;;;24.90;47.60;;;;;;4990554;28;20456;-68
2022/08/04 09:37:57;;;;;;;6.43;2.90;;;24.90;47.60;;;;;;5000622;28;20571;-64
2022/08/04 09:40:32;;;;;;;1.97;1.87;;;24.90;47.50;;;;;;4996470;28;20471;-64
2022/08/04 09:43:30;;;;;;;2.80;2.60;;;24.90;47.40;;;;;;4995580;28;20550;-64
2022/08/04 09:46:12;;;;;;;2.13;2.00;;;24.90;47.30;;;;;;4989502;28;20519;-64
2022/08/04 09:48:52;;;;;;;2.40;2.00;;;24.90;47.30;;;;;;4989017;28;20441;-65
2022/08/04 09:51:42;;;;;;;1.97;1.87;;;24.90;47.40;;;;;;4993955;28;20591;-64
2022/08/04 09:54:15;;;;;;;2.37;2.27;;;24.90;47.40;;;;;;4996326;28;20432;-64
2022/08/04 09:56:44;;;;;;;2.60;2.40;;;24.90;47.40;;;;;;4996707;28;20426;-65
2022/08/04 09:59:17;;;;;;;1.90;1.80;;;24.90;47.40;;;;;;5000104;28;20519;-63
2022/08/04 10:01:47;;;;;;;2.23;2.07;;;24.90;47.30;;;;;;4994744;28;20437;-68
2022/08/04 10:04:16;;;;;;;2.37;2.27;;;24.90;47.50;;;;;;4994662;28;20798;-64
2022/08/04 10:07:05;;;;;;;1.70;1.60;;;24.90;47.60;;;;;;5000199;28;20948;-64
2022/08/04 10:10:00;;;;;;;1.90;1.80;;;24.90;47.60;;;;;;5003717;28;20434;-65
2022/08/04 10:13:03;;;;;;;1.90;1.70;;;24.90;47.70;;;;;;5001968;28;20531;-66
2022/08/04 10:15:42;;;;;;;1.93;1.83;;;24.90;47.70;;;;;;5003330;28;20425;-64
2022/08/04 10:18:22;;;;;;;2.27;1.77;;;24.90;47.70;;;;;;5002328;28;20475;-65
2022/08/04 10:21:03;;;;;;;2.50;1.77;;;24.90;47.70;;;;;;5003963;28;20502;-63
2022/08/04 10:23:34;;;;;;;3.30;1.80;;;24.90;47.80;;;;;;5000601;28;20441;-65
2022/08/04 10:26:33;;;;;;;1.97;1.87;;;24.90;47.80;;;;;;4999865;28;20429;-62
2022/08/04 10:29:10;;;;;;;2.10;2.00;;;24.90;47.80;;;;;;5000268;28;20446;-70
2022/08/04 10:31:47;;;;;;;1.90;1.80;;;24.80;47.80;;;;;;4999972;28;20480;-63
2022/08/04 10:34:19;;;;;;;1.90;1.80;;;24.90;47.90;;;;;;4999802;28;20455;-66
2022/08/04 10:37:25;;;;;;;1.80;1.70;;;24.90;47.90;;;;;;5001625;28;20515;-63
2022/08/04 10:43:20;;;;;;;1.90;1.80;;;24.90;48.00;;;;;;4999427;28;20440;-62
2022/08/04 10:46:05;;;;;;;1.40;1.30;;;24.90;48.00;;;;;;5005717;28;21045;-63
2022/08/04 10:49:02;;;;;;;4.37;2.63;;;24.90;47.90;;;;;;4999997;28;20540;-62
2022/08/04 10:51:49;;;;;;;1.90;1.80;;;24.90;47.90;;;;;;4998505;28;20440;-62
2022/08/04 10:54:22;;;;;;;2.00;1.90;;;24.90;47.90;;;;;;4999083;28;20465;-63
2022/08/04 10:56:53;;;;;;;2.00;1.90;;;24.90;48.00;;;;;;5000655;28;20472;-62
2022/08/04 10:59:37;;;;;;;1.80;1.70;;;24.90;47.90;;;;;;4997450;28;20560;-62
2022/08/04 11:02:33;;;;;;;2.00;1.90;;;24.90;47.90;;;;;;4995019;28;20440;-66
2022/08/04 11:05:21;;;;;;;2.27;1.70;;;24.90;47.80;;;;;;4999601;28;20443;-62
2022/08/04 11:07:51;;;;;;;2.30;1.70;;;24.90;47.80;;;;;;4996131;28;20449;-64
2022/08/04 11:10:21;;;;;;;2.00;1.90;;;24.90;47.80;;;;;;5000151;28;20443;-63
2022/08/04 11:12:52;;;;;;;2.70;1.60;;;24.90;47.80;;;;;;5001195;28;20482;-64
2022/08/04 11:15:24;;;;;;;2.00;1.90;;;24.90;47.80;;;;;;4997630;28;20452;-62
2022/08/04 11:17:55;;;;;;;1.70;1.60;;;24.90;48.70;;;;;;4999153;28;20551;-62
2022/08/04 11:20:37;;;;;;;1.73;1.63;;;24.90;47.90;;;;;;5006299;28;20432;-66
2022/08/04 11:23:20;;;;;;;1.90;1.80;;;24.90;47.90;;;;;;5000235;28;20437;-63
2022/08/04 11:25:55;;;;;;;1.87;1.70;;;24.90;47.90;;;;;;5001311;28;20437;-63
2022/08/04 11:28:36;;;;;;;2.00;1.90;;;24.90;47.80;;;;;;5002389;28;20701;-64
2022/08/04 11:31:11;;;;;;;1.90;1.80;;;24.90;47.80;;;;;;4998021;28;20471;-70
2022/08/04 11:33:51;;;;;;;1.80;1.70;;;24.90;47.90;;;;;;4993486;28;20493;-66
2022/08/04 11:36:25;;;;;;;1.70;1.60;;;24.90;47.80;;;;;;5003705;28;20948;-63
2022/08/04 11:39:18;;;;;;;2.03;1.93;;;24.90;47.90;;;;;;5004004;28;20460;-67
2022/08/04 11:41:59;;;;;;;2.00;1.90;;;24.90;48.00;;;;;;4998875;28;20655;-65
2022/08/04 11:44:29;;;;;;;1.90;1.80;;;24.90;47.90;;;;;;4999150;28;20457;-64
2022/08/04 11:47:00;;;;;;;1.50;1.40;;;24.90;48.00;;;;;;5002625;28;20429;-64
2022/08/04 11:49:52;;;;;;;1.70;1.60;;;24.90;48.10;;;;;;5000150;28;20437;-64
2022/08/04 11:52:19;;;;;;;1.53;1.43;;;24.90;48.10;;;;;;5000783;28;20457;-64
2022/08/04 11:54:45;;;;;;;1.90;1.80;;;24.90;48.20;;;;;;5000877;28;20428;-68
2022/08/04 11:57:14;;;;;;;1.83;1.73;;;24.90;48.20;;;;;;4996880;28;20449;-64
2022/08/04 11:59:41;;;;;;;2.07;1.97;;;24.90;48.30;;;;;;4999344;28;20458;-66
2022/08/04 12:02:54;;;;;;;1.73;1.63;;;24.90;48.30;;;;;;5001673;28;20737;-64
2022/08/04 12:05:26;;;;;;;1.70;1.60;;;24.90;48.30;;;;;;4960363;28;21483;-64
2022/08/04 12:08:02;;;;;;;1.80;1.70;;;24.90;48.30;;;;;;4997490;28;20932;-64
2022/08/04 12:10:41;;;;;;;2.10;2.00;;;24.90;48.40;;;;;;5000146;28;20452;-63
2022/08/04 12:13:29;;;;;;;1.70;1.60;;;24.90;48.50;;;;;;4998549;28;20568;-64
2022/08/04 12:16:02;;;;;;;1.83;1.73;;;24.90;48.50;;;;;;4995324;28;20439;-64
2022/08/04 12:18:39;;;;;;;2.20;2.10;;;24.90;48.50;;;;;;5001734;28;20968;-67
2022/08/04 12:21:11;;;;;;;2.00;1.90;;;24.90;48.60;;;;;;4997579;28;20994;-64
2022/08/04 12:23:42;;;;;;;1.57;1.47;;;24.90;48.70;;;;;;4999397;28;20432;-63
2022/08/04 12:26:14;;;;;;;2.20;2.10;;;24.90;48.70;;;;;;4995311;28;20444;-67
2022/08/04 12:28:42;;;;;;;3.93;2.00;;;24.90;48.80;;;;;;4986649;28;20446;-66
2022/08/04 12:31:19;;;;;;;2.13;1.93;;;24.90;48.80;;;;;;4994296;28;20492;-66
2022/08/04 12:33:53;;;;;;;2.07;1.97;;;24.90;48.80;;;;;;4995259;28;20437;-66
2022/08/04 12:36:38;;;;;;;1.93;1.83;;;24.90;48.90;;;;;;4990777;28;20765;-64
2022/08/04 12:39:17;;;;;;;1.83;1.73;;;24.90;48.80;;;;;;4990456;28;20526;-65
2022/08/04 12:41:55;;;;;;;2.30;2.10;;;24.90;48.90;;;;;;4990096;28;20432;-65
2022/08/04 12:44:21;;;;;;;2.10;2.00;;;24.90;48.90;;;;;;4986808;28;20457;-65
2022/08/04 12:46:49;;;;;;;1.97;1.87;;;24.90;48.90;;;;;;4986416;28;20555;-67
2022/08/04 12:49:15;;;;;;;2.00;1.90;;;24.90;48.90;;;;;;4989178;28;20195;-65
2022/08/04 12:51:44;;;;;;;2.33;2.07;;;24.80;48.80;;;;;;4986996;28;20425;-70
2022/08/04 12:54:11;;;;;;;196.80;16.92;;;24.90;48.90;;;;;;4991055;28;20487;-63
2022/08/04 12:56:38;;;;;;;17.13;4.40;;;25.00;49.10;;;;;;4984189;28;20219;-63
2022/08/04 12:59:09;;;;;;;11.40;4.13;;;25.00;49.00;;;;;;4995063;28;20456;-71
2022/08/04 13:01:35;;;;;;;6.67;3.00;;;25.00;49.00;;;;;;4996338;28;20938;-62
2022/08/04 13:04:22;;;;;;;2.87;2.40;;;25.00;49.10;;;;;;4991739;28;20652;-65
2022/08/04 13:07:04;;;;;;;8.03;3.00;;;25.00;49.10;;;;;;4994517;28;20432;-60
2022/08/04 13:09:33;;;;;;;3.73;2.40;;;25.00;49.10;;;;;;5007234;28;20963;-59
2022/08/04 13:12:03;;;;;;;4.73;2.40;;;25.00;49.00;;;;;;4996628;28;20429;-59
2022/08/04 13:14:36;;;;;;;4.73;2.80;;;25.00;49.10;;;;;;4988266;28;20502;-64
2022/08/04 13:17:03;;;;;;;2.97;2.27;;;25.00;49.10;;;;;;4988002;28;20424;-69
2022/08/04 13:19:29;;;;;;;3.17;2.87;;;25.00;49.10;;;;;;4999052;28;20553;-67
2022/08/04 13:21:56;;;;;;;2.50;2.00;;;25.00;49.00;;;;;;4997792;28;20470;-75
2022/08/04 13:24:24;;;;;;;2.37;2.17;;;25.00;49.10;;;;;;4995253;28;20444;-59
2022/08/04 13:27:05;;;;;;;3.13;2.50;;;25.00;49.00;;;;;;4997264;28;20439;-59
2022/08/04 13:29:38;;;;;;;2.37;2.17;;;25.00;49.80;;;;;;4997426;28;20464;-63
2022/08/04 13:32:05;;;;;;;3.10;2.20;;;25.00;49.00;;;;;;4999087;28;20480;-64
2022/08/04 13:34:34;;;;;;;2.30;2.20;;;25.00;49.10;;;;;;4998037;28;21117;-62
2022/08/04 13:37:03;;;;;;;3.90;3.50;;;25.00;49.10;;;;;;4997964;28;20544;-61
2022/08/04 13:39:30;;;;;;;2.97;2.30;;;25.00;49.10;;;;;;4995864;28;20520;-65
2022/08/04 13:41:59;;;;;;;2.43;2.23;;;25.00;49.10;;;;;;4999542;28;20437;-74
2022/08/04 13:44:29;;;;;;;2.50;2.30;;;25.00;49.00;;;;;;5007118;28;20469;-59
2022/08/04 13:47:00;;;;;;;2.30;2.20;;;25.00;49.10;;;;;;5004970;28;20433;-58
2022/08/04 13:49:25;;;;;;;2.03;1.93;;;25.00;49.10;;;;;;5002350;28;20461;-64
2022/08/04 13:51:58;;;;;;;2.30;2.20;;;25.00;49.30;;;;;;5002915;28;20464;-60
2022/08/04 13:54:25;;;;;;;2.17;2.07;;;25.00;49.10;;;;;;5004448;28;20187;-65
2022/08/04 13:56:57;;;;;;;2.33;2.20;;;25.00;49.10;;;;;;5004082;28;20428;-67
2022/08/04 13:59:30;;;;;;;2.23;2.13;;;25.00;49.10;;;;;;5004692;28;20459;-63
2022/08/04 14:02:06;;;;;;;2.90;2.00;;;25.00;49.10;;;;;;5000776;28;20425;-59
2022/08/04 14:04:41;;;;;;;2.43;2.10;;;25.00;49.00;;;;;;5004459;28;20941;-64
2022/08/04 14:07:14;;;;;;;3.67;2.10;;;25.00;49.10;;;;;;5002858;28;20829;-59
2022/08/04 14:09:40;;;;;;;2.80;1.87;;;25.00;49.10;;;;;;5001069;28;20421;-59
2022/08/04 14:12:16;;;;;;;2.43;2.23;;;25.00;49.10;;;;;;5001825;28;20428;-61
2022/08/04 14:14:48;;;;;;;2.93;2.47;;;25.00;49.10;;;;;;5007590;28;20309;-61
2022/08/04 14:17:32;;;;;;;3.00;2.80;;;25.00;49.10;;;;;;5005292;28;20539;-61
2022/08/04 14:20:00;;;;;;;2.30;2.20;;;25.00;49.10;;;;;;5002526;28;20508;-66
2022/08/04 14:22:26;;;;;;;3.13;2.30;;;25.00;49.10;;;;;;5008029;28;20543;-61
2022/08/04 14:25:16;;;;;;;2.17;2.00;;;25.00;49.10;;;;;;5001362;28;20568;-61
2022/08/04 14:27:54;;;;;;;1.90;1.80;;;25.00;49.00;;;;;;5003748;28;20224;-62
2022/08/04 14:30:24;;;;;;;2.30;2.20;;;25.00;49.00;;;;;;5004535;28;20734;-58
2022/08/04 14:32:57;;;;;;;2.33;2.23;;;25.00;49.00;;;;;;5006520;28;21145;-59
2022/08/04 14:35:24;;;;;;;2.20;2.10;;;25.00;49.10;;;;;;5000579;28;20528;-60
2022/08/04 14:38:06;;;;;;;2.20;2.10;;;25.00;49.00;;;;;;5005244;28;20467;-59
2022/08/04 14:40:38;;;;;;;2.27;2.07;;;25.00;49.10;;;;;;5004993;28;20527;-64
2022/08/04 14:43:04;;;;;;;2.97;2.40;;;24.90;49.00;;;;;;5002064;28;20504;-63
2022/08/04 14:45:41;;;;;;;2.00;1.90;;;25.00;49.00;;;;;;5000826;28;20680;-78
2022/08/04 14:48:16;;;;;;;2.13;2.03;;;25.00;49.10;;;;;;5004147;28;20459;-67
2022/08/04 14:50:44;;;;;;;2.23;2.00;;;25.00;49.00;;;;;;5005675;28;20474;-61
2022/08/04 14:53:19;;;;;;;2.23;2.03;;;25.00;49.00;;;;;;5002433;28;20821;-62
2022/08/04 14:55:54;;;;;;;1.50;1.40;;;25.00;49.10;;;;;;5000973;28;20439;-63
2022/08/04 14:58:28;;;;;;;1.90;1.80;;;25.00;49.10;;;;;;5001855;28;20575;-62
2022/08/04 15:01:02;;;;;;;2.40;2.10;;;25.00;49.00;;;;;;4997875;28;21019;-58
2022/08/04 15:03:29;;;;;;;1.80;1.70;;;25.00;49.10;;;;;;4998541;28;20433;-64
2022/08/04 15:05:58;;;;;;;2.30;2.20;;;25.00;49.50;;;;;;4992017;28;20435;-59
2022/08/04 15:08:27;;;;;;;2.20;2.10;;;25.00;49.00;;;;;;4991300;28;20430;-78
2022/08/04 15:10:57;;;;;;;2.10;2.00;;;25.00;49.10;;;;;;4995037;28;20512;-62
2022/08/04 15:13:23;;;;;;;2.27;2.17;;;25.00;49.00;;;;;;4999155;28;21301;-68
2022/08/04 15:15:50;;;;;;;2.30;2.10;;;25.00;49.10;;;;;;5000796;28;20472;-62
2022/08/04 15:18:15;;;;;;;2.20;2.10;;;25.00;49.00;;;;;;4998050;28;20448;-68
2022/08/04 15:20:41;;;;;;;2.00;1.90;;;25.00;49.10;;;;;;5000452;28;20434;-67
2022/08/04 15:23:08;;;;;;;1.80;1.70;;;25.00;49.10;;;;;;4998642;28;20195;-67
2022/08/04 15:25:41;;;;;;;2.00;1.90;;;25.00;49.00;;;;;;4999320;28;20587;-64
2022/08/04 15:28:13;;;;;;;2.00;1.90;;;25.00;49.00;;;;;;4997514;28;20441;-81
2022/08/04 15:30:43;;;;;;;1.80;1.70;;;25.00;49.10;;;;;;4988353;28;20445;-66
2022/08/04 15:33:10;;;;;;;2.13;1.97;;;25.00;49.10;;;;;;4990194;28;20426;-70
2022/08/04 15:35:35;;;;;;;1.90;1.80;;;25.00;49.10;;;;;;4990802;28;20452;-65
2022/08/04 15:38:15;;;;;;;2.30;1.83;;;25.00;49.00;;;;;;4991886;28;20781;-62
2022/08/04 15:40:54;;;;;;;2.07;1.97;;;25.00;49.00;;;;;;4989363;28;20183;-80
2022/08/04 15:43:44;;;;;;;2.00;1.90;;;25.00;49.10;;;;;;4999466;28;22788;-63
2022/08/04 15:46:10;;;;;;;2.13;1.70;;;25.00;49.10;;;;;;4988460;28;20437;-61
2022/08/04 15:48:37;;;;;;;2.13;2.03;;;25.00;49.10;;;;;;4997525;28;20528;-67
2022/08/04 15:51:07;;;;;;;1.90;1.80;;;25.00;49.10;;;;;;4990815;28;21121;-72
2022/08/04 15:53:38;;;;;;;2.33;2.13;;;25.00;49.00;;;;;;4992220;28;20471;-68
2022/08/04 15:56:24;;;;;;;1.90;1.73;;;25.00;49.00;;;;;;4996060;28;20453;-65
2022/08/04 15:58:51;;;;;;;2.03;1.93;;;25.00;49.10;;;;;;4989017;28;20520;-63
2022/08/04 16:01:18;;;;;;;1.90;1.80;;;25.00;49.10;;;;;;4994836;28;21698;-62
2022/08/04 16:03:46;;;;;;;2.10;2.00;;;25.00;49.00;;;;;;4995693;28;20519;-62
2022/08/04 16:06:14;;;;;;;2.00;1.90;;;25.00;49.10;;;;;;4997286;28;20467;-60
2022/08/04 16:08:54;;;;;;;1.83;1.73;;;25.00;49.00;;;;;;4997596;28;20433;-60
2022/08/04 16:11:28;;;;;;;2.00;1.90;;;25.00;49.80;;;;;;4990209;28;20444;-73
2022/08/04 16:16:31;;;;;;;2.00;1.90;;;25.00;49.10;;;;;;4994083;28;20499;-62
2022/08/04 16:19:19;;;;;;;2.47;1.67;;;25.00;49.10;;;;;;4992331;28;20553;-66
2022/08/04 16:21:51;;;;;;;1.80;1.70;;;25.00;49.10;;;;;;4989278;28;20950;-68
2022/08/04 16:24:35;;;;;;;2.10;2.00;;;25.00;49.10;;;;;;4992588;28;20443;-59
2022/08/04 16:27:05;;;;;;;1.90;1.80;;;25.00;49.00;;;;;;4993141;28;20948;-59
2022/08/04 16:29:39;;;;;;;2.60;2.50;;;25.00;49.10;;;;;;4992729;28;20457;-59
2022/08/04 16:32:04;;;;;;;2.43;2.23;;;25.00;49.00;;;;;;4994800;28;20437;-67
2022/08/04 16:34:34;;;;;;;2.23;2.13;;;25.00;49.00;;;;;;5000225;28;20795;-63
2022/08/04 16:37:03;;;;;;;2.10;2.00;;;25.00;49.10;;;;;;4990928;28;20191;-62
2022/08/04 16:39:30;;;;;;;2.00;1.80;;;25.00;49.10;;;;;;5000443;28;20595;-58
2022/08/04 16:41:56;;;;;;;2.00;1.90;;;25.00;49.20;;;;;;4994240;28;20440;-58
2022/08/04 16:44:40;;;;;;;2.30;1.83;;;25.00;49.00;;;;;;4988968;28;20614;-58
2022/08/04 16:47:07;;;;;;;2.10;2.00;;;25.10;49.10;;;;;;4992580;28;20421;-66
2022/08/04 16:49:33;;;;;;;1.70;1.60;;;25.00;49.10;;;;;;4990700;28;20491;-61
2022/08/04 16:52:04;;;;;;;1.80;1.70;;;25.00;49.10;;;;;;4993357;28;20453;-64
2022/08/04 16:54:35;;;;;;;1.67;1.57;;;25.00;49.10;;;;;;4990245;28;20195;-62
2022/08/04 16:57:10;;;;;;;2.03;1.93;;;25.10;49.10;;;;;;4988652;28;20441;-61
2022/08/04 16:59:37;;;;;;;2.17;1.90;;;25.10;49.10;;;;;;4990777;28;20939;-77
2022/08/04 17:02:03;;;;;;;1.90;1.80;;;25.10;49.10;;;;;;4987215;28;20536;-80
2022/08/04 17:04:31;;;;;;;2.00;1.90;;;25.00;49.10;;;;;;4989577;28;20500;-63
2022/08/04 17:07:01;;;;;;;1.70;1.60;;;25.10;49.10;;;;;;4992331;28;20450;-58
2022/08/04 17:09:28;;;;;;;2.43;2.30;;;25.10;49.10;;;;;;4984304;28;20448;-75
2022/08/04 17:11:54;;;;;;;1.97;1.87;;;25.10;49.10;;;;;;4992215;28;20437;-58
2022/08/04 17:14:25;;;;;;;1.80;1.70;;;25.10;49.10;;;;;;4990228;28;20527;-62
2022/08/04 17:16:53;;;;;;;2.40;2.30;;;25.10;49.10;;;;;;4984202;28;20436;-58
2022/08/04 17:19:18;;;;;;;1.80;1.70;;;25.10;49.10;;;;;;4983823;28;20473;-58
2022/08/04 17:21:44;;;;;;;1.87;1.77;;;25.10;49.10;;;;;;4987100;28;20596;-61
2022/08/04 17:24:10;;;;;;;2.20;2.10;;;25.10;49.10;;;;;;4992064;28;20183;-63
2022/08/04 17:26:37;;;;;;;2.00;1.90;;;25.10;49.10;;;;;;4990323;28;20643;-59
2022/08/04 17:29:04;;;;;;;1.93;1.83;;;25.10;49.10;;;;;;4989599;28;20191;-63
2022/08/04 17:31:31;;;;;;;2.40;2.20;;;25.10;49.20;;;;;;4986880;28;20952;-70
2022/08/04 17:34:07;;;;;;;1.90;1.70;;;25.10;49.10;;;;;;4989046;28;20436;-65
2022/08/04 17:36:33;;;;;;;2.07;1.97;;;25.10;49.10;;;;;;4992550;28;20814;-58
2022/08/04 17:39:09;;;;;;;2.17;2.07;;;25.10;49.10;;;;;;4992058;28;20462;-60
2022/08/04 17:41:34;;;;;;;1.80;1.70;;;25.10;49.10;;;;;;4993188;28;20230;-74
2022/08/04 17:44:01;;;;;;;1.70;1.60;;;25.10;49.10;;;;;;4988109;28;20504;-66
2022/08/04 17:46:37;;;;;;;2.03;1.93;;;25.10;49.10;;;;;;4986201;28;20187;-66
2022/08/04 17:49:18;;;;;;;2.10;2.00;;;25.10;49.10;;;;;;4987324;28;20457;-74
2022/08/04 17:51:57;;;;;;;1.90;1.80;;;25.10;49.10;;;;;;4985846;28;20521;-57
2022/08/04 17:54:26;;;;;;;2.20;2.10;;;25.10;49.10;;;;;;4990889;28;20559;-58
2022/08/04 17:57:12;;;;;;;2.40;2.20;;;25.10;49.10;;;;;;4987771;28;20445;-63
2022/08/04 17:59:42;;;;;;;1.90;1.80;;;25.10;49.10;;;;;;4990942;28;20475;-57
2022/08/04 18:02:09;;;;;;;2.00;1.90;;;25.10;49.10;;;;;;4982186;28;20954;-61
2022/08/04 18:04:43;;;;;;;2.60;2.40;;;25.10;49.10;;;;;;4992891;28;20460;-61
2022/08/04 18:07:14;;;;;;;2.30;2.10;;;25.10;49.10;;;;;;4995268;28;20427;-66
2022/08/04 18:09:51;;;;;;;2.07;1.97;;;25.10;49.10;;;;;;4990169;28;20491;-64
2022/08/04 18:12:35;;;;;;;2.70;2.27;;;25.10;49.10;;;;;;4994856;28;20959;-60
2022/08/04 18:15:21;;;;;;;2.13;2.03;;;25.10;49.10;;;;;;4991460;28;20556;-64
2022/08/04 18:17:49;;;;;;;2.20;2.00;;;25.10;49.20;;;;;;4995356;28;20460;-72
2022/08/04 18:20:18;;;;;;;3.20;2.10;;;25.10;49.10;;;;;;4991780;28;20435;-64
2022/08/04 18:22:45;;;;;;;2.40;2.20;;;25.10;49.10;;;;;;4995164;28;20456;-58
2022/08/04 18:25:19;;;;;;;2.10;1.90;;;25.10;49.10;;;;;;4994687;28;20487;-58
2022/08/04 18:27:53;;;;;;;2.20;1.80;;;25.10;49.10;;;;;;4995746;28;20488;-59
2022/08/04 18:30:25;;;;;;;2.23;2.13;;;25.10;49.10;;;;;;4987678;28;20441;-68
2022/08/04 18:32:53;;;;;;;2.20;2.00;;;25.10;49.20;;;;;;4994540;28;20452;-66
2022/08/04 18:35:19;;;;;;;3.10;2.00;;;25.10;49.10;;;;;;4997055;28;20437;-58
2022/08/04 18:37:45;;;;;;;2.43;2.20;;;25.10;49.10;;;;;;4997757;28;20444;-58
2022/08/04 18:40:14;;;;;;;2.27;2.17;;;25.10;49.10;;;;;;5000354;28;20441;-59
2022/08/04 18:42:39;;;;;;;1.80;1.70;;;25.10;49.80;;;;;;4996958;28;20269;-59
2022/08/04 18:45:06;;;;;;;3.50;2.10;;;25.10;49.10;;;;;;4994652;28;21271;-57
2022/08/04 18:47:31;;;;;;;2.80;2.60;;;25.10;49.10;;;;;;4993377;28;20550;-58
2022/08/04 18:49:57;;;;;;;2.27;2.00;;;25.00;49.10;;;;;;4993206;28;20479;-66
2022/08/04 18:52:23;;;;;;;2.10;2.00;;;25.00;49.00;;;;;;4994187;28;20562;-72
2022/08/04 18:54:48;;;;;;;2.70;1.90;;;25.10;49.10;;;;;;4994876;28;20424;-57
2022/08/04 18:57:23;;;;;;;2.43;2.23;;;25.00;49.10;;;;;;4993818;28;20192;-59
2022/08/04 18:59:49;;;;;;;2.00;1.90;;;25.10;49.10;;;;;;4996702;28;20689;-65
2022/08/04 19:02:15;;;;;;;2.40;2.17;;;25.00;49.10;;;;;;4987465;28;20433;-61
2022/08/04 19:04:42;;;;;;;2.03;1.93;;;25.00;49.10;;;;;;4986870;28;20434;-61
2022/08/04 19:07:08;;;;;;;2.13;1.97;;;25.00;49.10;;;;;;4995901;28;20179;-62
2022/08/04 19:09:34;;;;;;;2.27;2.17;;;25.00;49.00;;;;;;4996745;28;20449;-58
2022/08/04 19:11:59;;;;;;;2.20;2.10;;;25.00;49.10;;;;;;4997205;28;20482;-57
2022/08/04 19:14:25;;;;;;;2.20;2.10;;;25.00;49.00;;;;;;4992376;28;20233;-60
2022/08/04 19:16:51;;;;;;;3.87;2.10;;;25.00;49.10;;;;;;4990439;28;20199;-59
2022/08/04 19:19:17;;;;;;;2.37;2.20;;;25.00;49.10;;;;;;4990603;28;20207;-60
2022/08/04 19:21:43;;;;;;;2.40;2.30;;;25.00;49.80;;;;;;4992532;28;20634;-67
2022/08/04 19:24:11;;;;;;;1.60;1.50;;;25.00;49.10;;;;;;4990954;28;20194;-57
2022/08/04 19:26:37;;;;;;;2.00;1.90;;;25.00;49.00;;;;;;4994079;28;20569;-61
2022/08/04 19:29:03;;;;;;;2.43;2.03;;;25.00;49.00;;;;;;5001255;28;20930;-59
2022/08/04 19:31:29;;;;;;;2.33;2.10;;;25.00;49.10;;;;;;5001409;28;20245;-57
2022/08/04 19:33:55;;;;;;;1.90;1.70;;;25.00;49.10;;;;;;5000403;28;20433;-59
2022/08/04 19:36:21;;;;;;;4.63;2.07;;;25.00;49.10;;;;;;4998845;28;20744;-61
2022/08/04 19:38:47;;;;;;;2.80;1.93;;;25.00;49.00;;;;;;5002055;28;20214;-61
2022/08/04 19:41:13;;;;;;;2.23;1.90;;;25.10;49.10;;;;;;5001667;28;20428;-57
2022/08/04 19:43:40;;;;;;;1.70;1.60;;;25.00;49.10;;;;;;4995960;28;20226;-59
2022/08/04 19:46:06;;;;;;;3.13;1.73;;;25.00;49.00;;;;;;5002695;28;20432;-57
2022/08/04 19:48:31;;;;;;;2.20;2.10;;;25.00;49.10;;;;;;4995926;28;20428;-56
2022/08/04 19:50:57;;;;;;;1.90;1.80;;;25.00;49.10;;;;;;4993979;28;20437;-66
2022/08/04 19:53:23;;;;;;;2.10;2.00;;;25.10;49.10;;;;;;5001058;28;20223;-57
2022/08/04 19:55:48;;;;;;;1.90;1.80;;;25.10;49.00;;;;;;4996134;28;20202;-59
2022/08/04 19:58:14;;;;;;;1.70;1.60;;;25.10;49.10;;;;;;5001783;28;20551;-61
2022/08/04 20:00:40;;;;;;;2.20;2.10;;;25.10;49.10;;;;;;5001075;28;20238;-62
2022/08/04 20:03:07;;;;;;;2.17;1.97;;;25.10;49.10;;;;;;5001123;28;20180;-60
2022/08/04 20:05:33;;;;;;;1.93;1.83;;;25.10;49.10;;;;;;4999567;28;20465;-63
2022/08/04 20:07:58;;;;;;;23.70;3.47;;;25.10;49.10;;;;;;4992455;28;20541;-56
2022/08/04 20:10:24;;;;;;;2.10;1.90;;;25.10;48.90;;;;;;4986804;28;20199;-56
2022/08/04 20:12:50;;;;;;;1.90;1.80;;;25.10;49.00;;;;;;4991073;28;20239;-58
2022/08/04 20:15:16;;;;;;;1.70;1.60;;;25.10;49.10;;;;;;4988050;28;20198;-58
2022/08/04 20:17:42;;;;;;;1.93;1.83;;;25.10;49.20;;;;;;4994013;28;20788;-62
2022/08/04 20:20:08;;;;;;;1.90;1.80;;;25.00;49.00;;;;;;4986366;28;20491;-61
2022/08/04 20:22:34;;;;;;;2.00;1.90;;;25.00;49.00;;;;;;4995462;28;20540;-59
2022/08/04 20:25:00;;;;;;;2.00;1.90;;;25.00;49.10;;;;;;4985906;28;20449;-57
2022/08/04 20:27:25;;;;;;;1.97;1.77;;;25.00;49.10;;;;;;4990504;28;20932;-70
2022/08/04 20:29:52;;;;;;;1.90;1.80;;;25.00;49.10;;;;;;4989881;28;20635;-59
2022/08/04 20:32:19;;;;;;;2.00;1.80;;;25.00;49.00;;;;;;4993694;28;20196;-63
2022/08/04 20:34:45;;;;;;;2.17;1.97;;;25.00;49.10;;;;;;4986758;28;20936;-67
2022/08/04 20:37:11;;;;;;;2.20;2.00;;;25.00;49.10;;;;;;4992898;28;20551;-58
2022/08/04 20:39:36;;;;;;;1.70;1.60;;;25.00;49.10;;;;;;4988941;28;20653;-64
2022/08/04 20:42:02;;;;;;;2.10;1.87;;;25.00;49.10;;;;;;4991343;28;21517;-69
2022/08/04 20:44:28;;;;;;;2.40;2.20;;;25.00;49.10;;;;;;4990737;28;20208;-57
2022/08/04 20:46:53;;;;;;;1.80;1.70;;;25.00;49.10;;;;;;4994635;28;20180;-63
2022/08/04 20:49:19;;;;;;;1.97;1.87;;;25.00;49.10;;;;;;5003760;28;20771;-59
2022/08/04 20:51:45;;;;;;;2.20;2.10;;;25.00;49.10;;;;;;4988361;28;20183;-59
2022/08/04 20:54:10;;;;;;;2.03;1.93;;;25.00;49.10;;;;;;4987851;28;20674;-59
2022/08/04 20:56:36;;;;;;;2.00;1.90;;;25.00;49.10;;;;;;4993346;28;20265;-60
2022/08/04 20:59:03;;;;;;;2.00;1.90;;;25.00;49.10;;;;;;4992799;28;20212;-59
2022/08/04 21:01:29;;;;;;;3.73;2.13;;;25.00;49.10;;;;;;4997169;28;20704;-59
2022/08/04 21:06:52;;;;;;;1.87;1.77;;;25.00;49.00;;;;;;4965770;28;20507;-66
2022/08/04 21:09:17;;;;;;;2.63;2.10;;;25.00;49.10;;;;;;4989084;28;20944;-68
2022/08/04 21:11:43;;;;;;;2.03;1.70;;;25.00;49.10;;;;;;4990352;28;20682;-57
2022/08/04 21:14:09;;;;;;;2.00;1.90;;;25.00;49.00;;;;;;4988221;28;20231;-57
2022/08/04 21:16:35;;;;;;;3.80;1.80;;;25.00;49.10;;;;;;4991687;28;20184;-58
2022/08/04 21:19:00;;;;;;;1.80;1.70;;;25.00;49.10;;;;;;4990293;28;20451;-59
2022/08/04 21:21:26;;;;;;;2.00;1.90;;;25.00;49.10;;;;;;4988558;28;20205;-58
2022/08/04 21:23:51;;;;;;;2.33;1.77;;;25.00;49.10;;;;;;4990371;28;20191;-60
2022/08/04 21:26:21;;;;;;;2.23;2.03;;;25.00;49.10;;;;;;4988469;28;20204;-60
2022/08/04 21:28:47;;;;;;;1.70;1.60;;;25.00;49.10;;;;;;4986968;28;20202;-60
2022/08/04 21:31:12;;;;;;;1.77;1.67;;;25.00;49.00;;;;;;4987649;28;20781;-58
2022/08/04 21:33:38;;;;;;;1.63;1.53;;;25.00;49.00;;;;;;4993772;28;20275;-58